sensor_id;sensor_type;location;lat;lon;timestamp;pressure;altitude;pressure_sealevel;temperature;humidity
63088;BME280;49173;43.164;27.786;2023-06-14T00:00:15;100108.53;;;18.50;72.38
63088;BME280;49173;43.164;27.786;2023-06-14T00:02:41;100118.97;;;18.54;71.98
63088;BME280;49173;43.164;27.786;2023-06-14T00:05:07;100111.38;;;18.58;71.88
63088;BME280;49173;43.164;27.786;2023-06-14T00:07:40;100110.13;;;18.62;72.15
63088;BME280;49173;43.164;27.786;2023-06-14T00:10:10;100115.13;;;18.57;72.36
63088;BME280;49173;43.164;27.786;2023-06-14T00:12:38;100110.69;;;18.56;72.29
63088;BME280;49173;43.164;27.786;2023-06-14T00:15:04;100119.09;;;18.53;72.54
63088;BME280;49173;43.164;27.786;2023-06-14T00:17:31;100118.84;;;18.56;72.65
63088;BME280;49173;43.164;27.786;2023-06-14T00:19:57;100110.69;;;18.56;72.50
63088;BME280;49173;43.164;27.786;2023-06-14T00:22:24;100106.09;;;18.56;72.47
63088;BME280;49173;43.164;27.786;2023-06-14T00:24:50;100106.66;;;18.60;72.36
63088;BME280;49173;43.164;27.786;2023-06-14T00:27:16;100110.97;;;18.62;72.34
63088;BME280;49173;43.164;27.786;2023-06-14T00:29:42;100111.84;;;18.63;72.21
63088;BME280;49173;43.164;27.786;2023-06-14T00:32:08;100104.94;;;18.59;72.12
63088;BME280;49173;43.164;27.786;2023-06-14T00:34:34;100107.81;;;18.57;72.18
63088;BME280;49173;43.164;27.786;2023-06-14T00:37:00;100116.25;;;18.54;72.51
63088;BME280;49173;43.164;27.786;2023-06-14T00:39:26;100113.66;;;18.53;72.50
63088;BME280;49173;43.164;27.786;2023-06-14T00:41:52;100113.81;;;18.51;72.50
63088;BME280;49173;43.164;27.786;2023-06-14T00:44:18;100112.97;;;18.51;72.72
63088;BME280;49173;43.164;27.786;2023-06-14T00:46:47;100108.53;;;18.50;72.54
63088;BME280;49173;43.164;27.786;2023-06-14T00:49:18;100108.81;;;18.47;72.71
63088;BME280;49173;43.164;27.786;2023-06-14T00:51:45;100103.38;;;18.47;72.78
63088;BME280;49173;43.164;27.786;2023-06-14T00:54:11;100113.38;;;18.46;72.95
63088;BME280;49173;43.164;27.786;2023-06-14T00:56:37;100106.97;;;18.47;72.90
63088;BME280;49173;43.164;27.786;2023-06-14T00:59:03;100106.97;;;18.47;72.90
63088;BME280;49173;43.164;27.786;2023-06-14T01:01:30;100111.66;;;18.45;72.96
63088;BME280;49173;43.164;27.786;2023-06-14T01:04:00;100107.06;;;18.36;73.33
63088;BME280;49173;43.164;27.786;2023-06-14T01:13:12;100105.78;;;18.30;73.47
63088;BME280;49173;43.164;27.786;2023-06-14T01:15:43;100107.19;;;18.25;73.74
63088;BME280;49173;43.164;27.786;2023-06-14T01:18:09;100103.59;;;18.24;73.94
63088;BME280;49173;43.164;27.786;2023-06-14T01:20:44;100097.19;;;18.25;73.79
63088;BME280;49173;43.164;27.786;2023-06-14T01:23:23;100098.47;;;18.21;73.73
63088;BME280;49173;43.164;27.786;2023-06-14T01:25:49;100098.03;;;18.16;73.62
63088;BME280;49173;43.164;27.786;2023-06-14T01:28:20;100097.31;;;18.14;73.72
63088;BME280;49173;43.164;27.786;2023-06-14T01:30:49;100106.31;;;18.15;73.62
63088;BME280;49173;43.164;27.786;2023-06-14T01:33:20;100099.44;;;18.10;73.64
63088;BME280;49173;43.164;27.786;2023-06-14T01:39:38;100098.41;;;18.02;73.81
63088;BME280;49173;43.164;27.786;2023-06-14T01:42:09;100104.28;;;17.97;74.01
63088;BME280;49173;43.164;27.786;2023-06-14T01:44:37;100100.56;;;17.98;74.07
63088;BME280;49173;43.164;27.786;2023-06-14T01:47:03;100101.56;;;17.97;74.27
63088;BME280;49173;43.164;27.786;2023-06-14T01:49:29;100097.09;;;17.96;74.23
63088;BME280;49173;43.164;27.786;2023-06-14T01:51:55;100098.84;;;17.97;74.01
63088;BME280;49173;43.164;27.786;2023-06-14T01:54:21;100099.69;;;17.98;74.05
63088;BME280;49173;43.164;27.786;2023-06-14T01:56:48;100102.81;;;17.93;74.15
63088;BME280;49173;43.164;27.786;2023-06-14T01:59:15;100094.81;;;17.92;74.19
63088;BME280;49173;43.164;27.786;2023-06-14T02:01:41;100098.25;;;17.94;74.36
63088;BME280;49173;43.164;27.786;2023-06-14T02:04:25;100100.97;;;17.94;74.10
63088;BME280;49173;43.164;27.786;2023-06-14T02:06:51;100103.09;;;17.90;74.02
63088;BME280;49173;43.164;27.786;2023-06-14T02:09:17;100096.78;;;17.90;73.96
63088;BME280;49173;43.164;27.786;2023-06-14T02:11:43;100102.38;;;17.88;73.90
63088;BME280;49173;43.164;27.786;2023-06-14T02:14:09;100103.06;;;17.80;73.85
63088;BME280;49173;43.164;27.786;2023-06-14T02:16:37;100106.91;;;17.78;73.94
63088;BME280;49173;43.164;27.786;2023-06-14T02:19:05;100099.88;;;17.75;74.26
63088;BME280;49173;43.164;27.786;2023-06-14T02:21:30;100107.16;;;17.75;74.33
63088;BME280;49173;43.164;27.786;2023-06-14T02:23:56;100106.72;;;17.70;74.49
63088;BME280;49173;43.164;27.786;2023-06-14T02:26:23;100111.38;;;17.68;74.64
63088;BME280;49173;43.164;27.786;2023-06-14T02:28:49;100108.97;;;17.65;74.34
63088;BME280;49173;43.164;27.786;2023-06-14T02:31:15;100112.94;;;17.61;74.45
63088;BME280;49173;43.164;27.786;2023-06-14T02:33:41;100110.03;;;17.52;75.04
63088;BME280;49173;43.164;27.786;2023-06-14T02:36:07;100111.91;;;17.52;74.85
63088;BME280;49173;43.164;27.786;2023-06-14T02:39:46;100122.28;;;17.47;74.77
63088;BME280;49173;43.164;27.786;2023-06-14T02:42:12;100116.13;;;17.45;75.13
63088;BME280;49173;43.164;27.786;2023-06-14T02:44:37;100121.56;;;17.45;75.30
63088;BME280;49173;43.164;27.786;2023-06-14T02:47:04;100126.13;;;17.44;75.40
63088;BME280;49173;43.164;27.786;2023-06-14T02:49:30;100125.00;;;17.47;75.77
63088;BME280;49173;43.164;27.786;2023-06-14T02:51:56;100118.84;;;17.45;75.81
63088;BME280;49173;43.164;27.786;2023-06-14T02:54:22;100126.00;;;17.46;76.20
63088;BME280;49173;43.164;27.786;2023-06-14T02:56:48;100123.88;;;17.49;75.99
63088;BME280;49173;43.164;27.786;2023-06-14T02:59:14;100121.75;;;17.53;76.18
63088;BME280;49173;43.164;27.786;2023-06-14T03:01:40;100129.63;;;17.56;76.07
63088;BME280;49173;43.164;27.786;2023-06-14T03:04:08;100131.50;;;17.55;76.30
63088;BME280;49173;43.164;27.786;2023-06-14T03:06:35;100125.66;;;17.60;76.34
63088;BME280;49173;43.164;27.786;2023-06-14T03:09:03;100131.53;;;17.65;76.30
63088;BME280;49173;43.164;27.786;2023-06-14T03:11:32;100133.00;;;17.69;76.04
63088;BME280;49173;43.164;27.786;2023-06-14T03:14:00;100132.59;;;17.74;76.05
63088;BME280;49173;43.164;27.786;2023-06-14T03:16:26;100134.78;;;17.80;76.14
63088;BME280;49173;43.164;27.786;2023-06-14T03:18:55;100136.94;;;17.86;75.75
63088;BME280;49173;43.164;27.786;2023-06-14T03:21:21;100134.09;;;17.88;75.92
63088;BME280;49173;43.164;27.786;2023-06-14T03:23:48;100138.84;;;17.95;75.97
63088;BME280;49173;43.164;27.786;2023-06-14T03:26:14;100143.16;;;17.98;75.78
63088;BME280;49173;43.164;27.786;2023-06-14T03:28:46;100155.19;;;18.05;75.78
63088;BME280;49173;43.164;27.786;2023-06-14T03:31:12;100147.19;;;18.13;75.46
63088;BME280;49173;43.164;27.786;2023-06-14T03:33:39;100150.22;;;18.20;75.47
63088;BME280;49173;43.164;27.786;2023-06-14T03:36:06;100154.25;;;18.25;75.42
63088;BME280;49173;43.164;27.786;2023-06-14T03:38:35;100152.69;;;18.32;75.29
63088;BME280;49173;43.164;27.786;2023-06-14T03:41:00;100147.53;;;18.39;74.80
63088;BME280;49173;43.164;27.786;2023-06-14T03:43:27;100144.56;;;18.42;74.42
63088;BME280;49173;43.164;27.786;2023-06-14T03:45:53;100148.28;;;18.51;74.46
63088;BME280;49173;43.164;27.786;2023-06-14T03:48:19;100145.00;;;18.57;74.28
63088;BME280;49173;43.164;27.786;2023-06-14T03:50:44;100148.03;;;18.63;74.14
63088;BME280;49173;43.164;27.786;2023-06-14T03:53:11;100141.75;;;18.73;73.84
63088;BME280;49173;43.164;27.786;2023-06-14T03:55:37;100138.22;;;18.82;74.03
63088;BME280;49173;43.164;27.786;2023-06-14T03:58:03;100147.91;;;18.94;73.82
63088;BME280;49173;43.164;27.786;2023-06-14T04:00:29;100149.91;;;19.02;73.48
63088;BME280;49173;43.164;27.786;2023-06-14T04:02:55;100152.50;;;19.13;73.38
63088;BME280;49173;43.164;27.786;2023-06-14T04:05:21;100155.34;;;19.21;72.93
63088;BME280;49173;43.164;27.786;2023-06-14T04:07:51;100149.78;;;19.32;72.31
63088;BME280;49173;43.164;27.786;2023-06-14T04:10:17;100149.59;;;19.43;72.30
63088;BME280;49173;43.164;27.786;2023-06-14T04:12:47;100153.88;;;19.56;71.70
63088;BME280;49173;43.164;27.786;2023-06-14T04:15:12;100150.88;;;19.68;71.08
63088;BME280;49173;43.164;27.786;2023-06-14T04:17:39;100157.13;;;19.79;70.83
63088;BME280;49173;43.164;27.786;2023-06-14T04:20:06;100147.06;;;19.89;70.63
63088;BME280;49173;43.164;27.786;2023-06-14T04:22:34;100163.19;;;20.00;69.90
63088;BME280;49173;43.164;27.786;2023-06-14T04:25:03;100161.75;;;20.06;69.73
63088;BME280;49173;43.164;27.786;2023-06-14T04:27:40;100159.97;;;20.14;69.35
63088;BME280;49173;43.164;27.786;2023-06-14T04:30:12;100168.84;;;20.26;68.52
63088;BME280;49173;43.164;27.786;2023-06-14T04:32:44;100162.47;;;20.35;68.26
63088;BME280;49173;43.164;27.786;2023-06-14T04:35:14;100163.56;;;20.42;68.63
63088;BME280;49173;43.164;27.786;2023-06-14T04:37:47;100166.81;;;20.55;68.72
63088;BME280;49173;43.164;27.786;2023-06-14T04:40:17;100161.16;;;20.67;68.38
63088;BME280;49173;43.164;27.786;2023-06-14T04:42:51;100169.44;;;20.75;67.32
63088;BME280;49173;43.164;27.786;2023-06-14T04:45:21;100176.84;;;20.82;66.81
63088;BME280;49173;43.164;27.786;2023-06-14T04:48:00;100185.66;;;20.94;67.60
63088;BME280;49173;43.164;27.786;2023-06-14T04:50:45;100191.03;;;21.04;66.80
63088;BME280;49173;43.164;27.786;2023-06-14T04:53:29;100190.25;;;21.11;65.55
63088;BME280;49173;43.164;27.786;2023-06-14T04:56:04;100196.09;;;21.17;65.35
63088;BME280;49173;43.164;27.786;2023-06-14T04:58:34;100192.03;;;21.21;66.19
63088;BME280;49173;43.164;27.786;2023-06-14T05:01:31;100195.56;;;21.31;65.56
63088;BME280;49173;43.164;27.786;2023-06-14T05:04:03;100195.47;;;21.41;64.96
63088;BME280;49173;43.164;27.786;2023-06-14T05:06:33;100195.69;;;21.47;64.70
63088;BME280;49173;43.164;27.786;2023-06-14T05:08:59;100190.28;;;21.55;64.49
63088;BME280;49173;43.164;27.786;2023-06-14T05:11:31;100201.44;;;21.62;64.72
63088;BME280;49173;43.164;27.786;2023-06-14T05:14:01;100199.97;;;21.67;64.35
63088;BME280;49173;43.164;27.786;2023-06-14T05:16:30;100192.84;;;21.75;63.97
63088;BME280;49173;43.164;27.786;2023-06-14T05:18:59;100205.38;;;21.85;62.83
63088;BME280;49173;43.164;27.786;2023-06-14T05:21:32;100203.56;;;21.94;62.55
63088;BME280;49173;43.164;27.786;2023-06-14T05:24:08;100213.34;;;22.05;62.97
63088;BME280;49173;43.164;27.786;2023-06-14T05:26:40;100211.06;;;22.18;62.42
63088;BME280;49173;43.164;27.786;2023-06-14T05:29:06;100219.16;;;22.28;61.79
63088;BME280;49173;43.164;27.786;2023-06-14T05:31:41;100220.03;;;22.36;61.17
63088;BME280;49173;43.164;27.786;2023-06-14T05:34:10;100216.31;;;22.45;61.10
63088;BME280;49173;43.164;27.786;2023-06-14T05:36:40;100220.47;;;22.58;61.62
63088;BME280;49173;43.164;27.786;2023-06-14T05:39:10;100223.25;;;22.66;60.95
63088;BME280;49173;43.164;27.786;2023-06-14T05:41:36;100218.31;;;22.69;61.25
63088;BME280;49173;43.164;27.786;2023-06-14T05:44:05;100218.13;;;22.71;61.14
63088;BME280;49173;43.164;27.786;2023-06-14T05:46:33;100224.31;;;22.81;60.64
63088;BME280;49173;43.164;27.786;2023-06-14T05:49:08;100224.91;;;22.93;60.56
63088;BME280;49173;43.164;27.786;2023-06-14T05:51:40;100229.53;;;23.00;60.02
63088;BME280;49173;43.164;27.786;2023-06-14T05:54:10;100230.75;;;23.06;59.32
63088;BME280;49173;43.164;27.786;2023-06-14T05:56:39;100222.19;;;23.09;58.36
63088;BME280;49173;43.164;27.786;2023-06-14T05:59:15;100229.38;;;23.18;59.77
63088;BME280;49173;43.164;27.786;2023-06-14T06:01:44;100226.66;;;23.26;59.34
63088;BME280;49173;43.164;27.786;2023-06-14T06:04:13;100239.50;;;23.34;59.18
63088;BME280;49173;43.164;27.786;2023-06-14T06:06:42;100234.53;;;23.46;59.78
63088;BME280;49173;43.164;27.786;2023-06-14T06:09:12;100238.66;;;23.58;58.72
63088;BME280;49173;43.164;27.786;2023-06-14T06:11:43;100234.06;;;23.67;58.99
63088;BME280;49173;43.164;27.786;2023-06-14T06:14:13;100236.28;;;23.71;58.02
63088;BME280;49173;43.164;27.786;2023-06-14T06:16:42;100237.31;;;23.78;57.97
63088;BME280;49173;43.164;27.786;2023-06-14T06:19:08;100240.88;;;23.87;57.08
63088;BME280;49173;43.164;27.786;2023-06-14T06:21:39;100241.41;;;23.99;57.62
63088;BME280;49173;43.164;27.786;2023-06-14T06:24:09;100235.22;;;24.05;57.80
63088;BME280;49173;43.164;27.786;2023-06-14T06:26:41;100229.34;;;24.16;57.33
63088;BME280;49173;43.164;27.786;2023-06-14T06:29:08;100239.97;;;24.27;57.28
63088;BME280;49173;43.164;27.786;2023-06-14T06:31:37;100241.66;;;24.36;56.72
63088;BME280;49173;43.164;27.786;2023-06-14T06:34:10;100227.06;;;24.44;55.75
63088;BME280;49173;43.164;27.786;2023-06-14T06:36:39;100230.81;;;24.51;56.01
63088;BME280;49173;43.164;27.786;2023-06-14T06:39:08;100227.88;;;24.61;56.36
63088;BME280;49173;43.164;27.786;2023-06-14T06:41:46;100233.13;;;24.71;55.54
63088;BME280;49173;43.164;27.786;2023-06-14T06:44:15;100231.19;;;24.79;54.34
63088;BME280;49173;43.164;27.786;2023-06-14T06:46:43;100231.69;;;24.83;54.05
63088;BME280;49173;43.164;27.786;2023-06-14T06:49:12;100223.66;;;24.81;53.38
63088;BME280;49173;43.164;27.786;2023-06-14T06:51:41;100227.38;;;24.88;53.49
63088;BME280;49173;43.164;27.786;2023-06-14T06:54:10;100228.72;;;24.92;51.43
63088;BME280;49173;43.164;27.786;2023-06-14T06:56:40;100232.69;;;24.90;52.26
63088;BME280;49173;43.164;27.786;2023-06-14T06:59:12;100223.94;;;24.86;51.19
63088;BME280;49173;43.164;27.786;2023-06-14T07:01:45;100220.00;;;24.89;51.28
63088;BME280;49173;43.164;27.786;2023-06-14T07:04:20;100230.28;;;24.95;51.91
63088;BME280;49173;43.164;27.786;2023-06-14T07:06:49;100225.41;;;25.05;50.55
63088;BME280;49173;43.164;27.786;2023-06-14T07:09:18;100224.50;;;25.13;50.82
63088;BME280;49173;43.164;27.786;2023-06-14T07:11:46;100227.88;;;25.23;50.94
63088;BME280;49173;43.164;27.786;2023-06-14T07:14:25;100219.59;;;25.31;49.88
63088;BME280;49173;43.164;27.786;2023-06-14T07:17:07;100223.72;;;25.27;49.00
63088;BME280;49173;43.164;27.786;2023-06-14T07:19:36;100220.56;;;25.38;50.62
63088;BME280;49173;43.164;27.786;2023-06-14T07:22:05;100225.41;;;25.51;49.64
63088;BME280;49173;43.164;27.786;2023-06-14T07:24:34;100226.38;;;25.58;50.04
63088;BME280;49173;43.164;27.786;2023-06-14T07:27:14;100220.25;;;25.71;48.99
63088;BME280;49173;43.164;27.786;2023-06-14T07:29:40;100229.16;;;25.81;48.51
63088;BME280;49173;43.164;27.786;2023-06-14T07:32:07;100221.13;;;25.94;48.53
63088;BME280;49173;43.164;27.786;2023-06-14T07:34:36;100218.28;;;26.02;47.92
63088;BME280;49173;43.164;27.786;2023-06-14T07:37:05;100219.38;;;25.93;46.67
63088;BME280;49173;43.164;27.786;2023-06-14T07:39:31;100218.16;;;25.81;47.32
63088;BME280;49173;43.164;27.786;2023-06-14T07:42:01;100226.66;;;25.86;48.82
63088;BME280;49173;43.164;27.786;2023-06-14T07:44:32;100229.19;;;25.96;48.94
63088;BME280;49173;43.164;27.786;2023-06-14T07:47:04;100217.88;;;26.06;47.97
63088;BME280;49173;43.164;27.786;2023-06-14T07:49:38;100214.03;;;26.15;46.91
63088;BME280;49173;43.164;27.786;2023-06-14T07:52:07;100219.44;;;26.23;48.09
63088;BME280;49173;43.164;27.786;2023-06-14T07:54:39;100215.94;;;26.29;47.80
63088;BME280;49173;43.164;27.786;2023-06-14T07:57:21;100223.34;;;26.43;47.03
63088;BME280;49173;43.164;27.786;2023-06-14T07:59:50;100220.75;;;26.56;47.04
63088;BME280;49173;43.164;27.786;2023-06-14T08:02:17;100219.63;;;26.66;45.33
63088;BME280;49173;43.164;27.786;2023-06-14T08:04:46;100221.34;;;26.67;46.57
63088;BME280;49173;43.164;27.786;2023-06-14T08:07:18;100233.94;;;26.76;46.34
63088;BME280;49173;43.164;27.786;2023-06-14T08:09:48;100226.72;;;26.75;45.64
63088;BME280;49173;43.164;27.786;2023-06-14T08:12:20;100227.66;;;26.82;45.48
63088;BME280;49173;43.164;27.786;2023-06-14T08:14:47;100232.69;;;26.93;46.43
63088;BME280;49173;43.164;27.786;2023-06-14T08:17:34;100225.72;;;26.97;45.38
63088;BME280;49173;43.164;27.786;2023-06-14T08:20:12;100235.44;;;27.08;45.46
63088;BME280;49173;43.164;27.786;2023-06-14T08:22:42;100232.91;;;27.13;45.59
63088;BME280;49173;43.164;27.786;2023-06-14T08:25:08;100227.09;;;27.23;45.80
63088;BME280;49173;43.164;27.786;2023-06-14T08:27:41;100229.66;;;27.24;45.23
63088;BME280;49173;43.164;27.786;2023-06-14T08:30:22;100234.19;;;27.32;45.82
63088;BME280;49173;43.164;27.786;2023-06-14T08:33:02;100234.91;;;27.41;45.53
63088;BME280;49173;43.164;27.786;2023-06-14T08:35:37;100229.28;;;27.49;44.72
63088;BME280;49173;43.164;27.786;2023-06-14T08:38:08;100229.47;;;27.47;44.24
63088;BME280;49173;43.164;27.786;2023-06-14T08:40:38;100226.06;;;27.45;44.43
63088;BME280;49173;43.164;27.786;2023-06-14T08:43:08;100233.75;;;27.50;44.70
63088;BME280;49173;43.164;27.786;2023-06-14T08:45:41;100235.72;;;27.56;43.92
63088;BME280;49173;43.164;27.786;2023-06-14T08:48:08;100221.09;;;27.62;45.40
63088;BME280;49173;43.164;27.786;2023-06-14T08:50:38;100230.19;;;27.56;44.03
63088;BME280;49173;43.164;27.786;2023-06-14T08:53:11;100226.75;;;27.54;44.29
63088;BME280;49173;43.164;27.786;2023-06-14T08:55:51;100225.78;;;27.61;44.08
63088;BME280;49173;43.164;27.786;2023-06-14T08:58:21;100216.75;;;27.68;44.40
63088;BME280;49173;43.164;27.786;2023-06-14T09:01:03;100217.00;;;27.73;43.37
63088;BME280;49173;43.164;27.786;2023-06-14T09:03:43;100211.94;;;27.76;44.27
63088;BME280;49173;43.164;27.786;2023-06-14T09:06:16;100210.69;;;27.79;43.21
63088;BME280;49173;43.164;27.786;2023-06-14T09:08:57;100210.94;;;27.84;43.46
63088;BME280;49173;43.164;27.786;2023-06-14T09:11:30;100214.84;;;27.68;44.17
63088;BME280;49173;43.164;27.786;2023-06-14T09:14:00;100208.06;;;27.49;43.93
63088;BME280;49173;43.164;27.786;2023-06-14T09:16:32;100204.94;;;27.31;44.34
63088;BME280;49173;43.164;27.786;2023-06-14T09:19:03;100187.66;;;27.44;44.36
63088;BME280;49173;43.164;27.786;2023-06-14T09:21:34;100200.56;;;27.64;44.09
63088;BME280;49173;43.164;27.786;2023-06-14T09:24:16;100190.88;;;27.69;43.22
63088;BME280;49173;43.164;27.786;2023-06-14T09:26:50;100201.75;;;27.77;43.07
63088;BME280;49173;43.164;27.786;2023-06-14T09:29:23;100201.41;;;27.86;42.62
63088;BME280;49173;43.164;27.786;2023-06-14T09:32:02;100192.13;;;27.94;42.75
63088;BME280;49173;43.164;27.786;2023-06-14T09:34:29;100188.41;;;27.80;42.44
63088;BME280;49173;43.164;27.786;2023-06-14T09:36:56;100190.97;;;27.82;43.92
63088;BME280;49173;43.164;27.786;2023-06-14T09:39:25;100196.28;;;27.83;42.96
63088;BME280;49173;43.164;27.786;2023-06-14T09:41:56;100211.66;;;27.92;43.77
63088;BME280;49173;43.164;27.786;2023-06-14T09:44:24;100198.81;;;28.06;43.45
63088;BME280;49173;43.164;27.786;2023-06-14T09:47:02;100189.03;;;28.10;41.51
63088;BME280;49173;43.164;27.786;2023-06-14T09:49:34;100196.19;;;28.26;42.12
63088;BME280;49173;43.164;27.786;2023-06-14T09:52:06;100193.66;;;28.31;41.55
63088;BME280;49173;43.164;27.786;2023-06-14T09:54:35;100183.75;;;28.09;40.90
63088;BME280;49173;43.164;27.786;2023-06-14T09:57:39;100194.97;;;28.07;42.53
63088;BME280;49173;43.164;27.786;2023-06-14T10:00:13;100198.47;;;28.23;41.99
63088;BME280;49173;43.164;27.786;2023-06-14T10:02:54;100181.63;;;28.45;41.54
63088;BME280;49173;43.164;27.786;2023-06-14T10:05:27;100191.91;;;28.65;41.26
63088;BME280;49173;43.164;27.786;2023-06-14T10:08:05;100194.94;;;28.70;40.26
63088;BME280;49173;43.164;27.786;2023-06-14T10:10:34;100185.41;;;28.86;41.56
63088;BME280;49173;43.164;27.786;2023-06-14T10:13:03;100191.06;;;29.12;40.99
63088;BME280;49173;43.164;27.786;2023-06-14T10:18:49;100178.78;;;29.61;39.43
63088;BME280;49173;43.164;27.786;2023-06-14T10:21:37;100178.78;;;29.61;38.26
63088;BME280;49173;43.164;27.786;2023-06-14T10:24:16;100194.09;;;29.64;38.58
63088;BME280;49173;43.164;27.786;2023-06-14T10:26:58;100181.56;;;29.74;38.94
63088;BME280;49173;43.164;27.786;2023-06-14T10:29:28;100187.06;;;29.81;37.99
63088;BME280;49173;43.164;27.786;2023-06-14T10:32:01;100189.63;;;29.83;38.77
63088;BME280;49173;43.164;27.786;2023-06-14T10:34:32;100178.75;;;29.88;38.11
63088;BME280;49173;43.164;27.786;2023-06-14T10:37:20;100178.34;;;29.97;38.93
63088;BME280;49173;43.164;27.786;2023-06-14T10:39:50;100178.53;;;30.09;38.49
63088;BME280;49173;43.164;27.786;2023-06-14T10:42:27;100175.56;;;30.17;38.00
63088;BME280;49173;43.164;27.786;2023-06-14T10:44:55;100185.72;;;30.30;39.29
63088;BME280;49173;43.164;27.786;2023-06-14T10:47:30;100190.41;;;30.36;38.79
63088;BME280;49173;43.164;27.786;2023-06-14T10:50:06;100187.88;;;30.28;37.30
63088;BME280;49173;43.164;27.786;2023-06-14T10:52:42;100188.75;;;30.15;37.77
63088;BME280;49173;43.164;27.786;2023-06-14T10:55:10;100190.44;;;30.16;38.68
63088;BME280;49173;43.164;27.786;2023-06-14T10:57:45;100188.50;;;30.23;38.37
63088;BME280;49173;43.164;27.786;2023-06-14T11:00:13;100186.41;;;30.25;38.36
63088;BME280;49173;43.164;27.786;2023-06-14T11:08:32;100184.91;;;30.16;38.19
63088;BME280;49173;43.164;27.786;2023-06-14T11:11:18;100182.97;;;30.23;38.83
63088;BME280;49173;43.164;27.786;2023-06-14T11:13:53;100180.81;;;30.39;37.80
63088;BME280;49173;43.164;27.786;2023-06-14T11:16:25;100176.16;;;30.32;37.80
63088;BME280;49173;43.164;27.786;2023-06-14T11:18:57;100175.56;;;30.17;37.61
63088;BME280;49173;43.164;27.786;2023-06-14T11:21:27;100182.38;;;30.15;37.63
63088;BME280;49173;43.164;27.786;2023-06-14T11:24:15;100182.19;;;29.83;37.08
63088;BME280;49173;43.164;27.786;2023-06-14T11:26:53;100179.41;;;29.76;37.64
63088;BME280;49173;43.164;27.786;2023-06-14T11:29:29;100172.59;;;29.79;37.53
63088;BME280;49173;43.164;27.786;2023-06-14T11:31:59;100173.44;;;29.79;37.77
63088;BME280;49173;43.164;27.786;2023-06-14T11:34:29;100187.28;;;29.79;37.71
63088;BME280;49173;43.164;27.786;2023-06-14T11:36:58;100180.06;;;29.72;37.74
63088;BME280;49173;43.164;27.786;2023-06-14T11:39:29;100181.75;;;29.66;38.71
63088;BME280;49173;43.164;27.786;2023-06-14T11:42:01;100190.28;;;29.71;38.61
63088;BME280;49173;43.164;27.786;2023-06-14T11:44:32;100189.88;;;29.74;37.90
63088;BME280;49173;43.164;27.786;2023-06-14T11:47:03;100194.09;;;29.77;37.76
63088;BME280;49173;43.164;27.786;2023-06-14T11:49:37;100183.88;;;29.77;37.78
63088;BME280;49173;43.164;27.786;2023-06-14T11:52:07;100188.56;;;29.84;38.19
63088;BME280;49173;43.164;27.786;2023-06-14T11:54:42;100183.25;;;29.89;37.79
63088;BME280;49173;43.164;27.786;2023-06-14T11:57:14;100179.19;;;29.85;40.32
63088;BME280;49173;43.164;27.786;2023-06-14T11:59:41;100187.72;;;29.76;40.42
63088;BME280;49173;43.164;27.786;2023-06-14T12:02:16;100186.03;;;29.75;40.71
63088;BME280;49173;43.164;27.786;2023-06-14T12:04:49;100186.88;;;29.69;40.95
63088;BME280;49173;43.164;27.786;2023-06-14T12:07:24;100179.88;;;29.60;40.84
63088;BME280;49173;43.164;27.786;2023-06-14T12:12:59;100185.75;;;29.37;41.50
63088;BME280;49173;43.164;27.786;2023-06-14T12:15:37;100184.25;;;29.28;42.42
63088;BME280;49173;43.164;27.786;2023-06-14T12:18:09;100189.16;;;29.19;42.57
63088;BME280;49173;43.164;27.786;2023-06-14T12:20:47;100181.47;;;29.08;42.75
63088;BME280;49173;43.164;27.786;2023-06-14T12:23:18;100174.22;;;29.00;43.01
63088;BME280;49173;43.164;27.786;2023-06-14T12:26:32;100175.69;;;29.03;43.27
63088;BME280;49173;43.164;27.786;2023-06-14T12:28:51;100183.34;;;29.01;43.47
63088;BME280;49173;43.164;27.786;2023-06-14T12:31:21;100177.84;;;29.01;43.30
63088;BME280;49173;43.164;27.786;2023-06-14T12:33:53;100165.91;;;28.94;42.78
63088;BME280;49173;43.164;27.786;2023-06-14T12:36:26;100176.06;;;28.87;43.55
63088;BME280;49173;43.164;27.786;2023-06-14T12:38:55;100171.44;;;28.94;44.34
63088;BME280;49173;43.164;27.786;2023-06-14T12:41:24;100172.72;;;28.91;44.35
63088;BME280;49173;43.164;27.786;2023-06-14T12:44:19;100170.16;;;28.96;44.60
63088;BME280;49173;43.164;27.786;2023-06-14T12:46:57;100165.06;;;28.93;44.11
63088;BME280;49173;43.164;27.786;2023-06-14T12:49:25;100170.97;;;28.90;44.03
63088;BME280;49173;43.164;27.786;2023-06-14T12:51:54;100165.69;;;28.95;44.22
63088;BME280;49173;43.164;27.786;2023-06-14T12:54:26;100160.16;;;28.95;43.87
63088;BME280;49173;43.164;27.786;2023-06-14T12:56:59;100163.38;;;28.92;44.01
63088;BME280;49173;43.164;27.786;2023-06-14T12:59:31;100154.84;;;28.94;44.35
63088;BME280;49173;43.164;27.786;2023-06-14T13:02:13;100167.19;;;28.91;44.33
63088;BME280;49173;43.164;27.786;2023-06-14T13:04:59;100172.44;;;28.80;44.22
63088;BME280;49173;43.164;27.786;2023-06-14T13:07:40;100170.06;;;28.70;44.19
63088;BME280;49173;43.164;27.786;2023-06-14T13:10:11;100173.22;;;28.67;44.55
63088;BME280;49173;43.164;27.786;2023-06-14T13:12:40;100171.09;;;28.62;44.58
63088;BME280;49173;43.164;27.786;2023-06-14T13:15:14;100173.41;;;28.59;44.40
63088;BME280;49173;43.164;27.786;2023-06-14T13:17:52;100166.63;;;28.61;45.28
63088;BME280;49173;43.164;27.786;2023-06-14T13:20:24;100169.19;;;28.63;46.33
63088;BME280;49173;43.164;27.786;2023-06-14T13:22:54;100169.38;;;28.61;46.91